sensor_id;sensor_type;location;lat;lon;timestamp;P1;durP1;ratioP1;P2;durP2;ratioP2
75914;SDS011;64593;51.050;13.780;2023-06-10T06:00:34;8.38;;;4.68;;
75914;SDS011;64593;51.050;13.780;2023-06-10T06:05:39;6.47;;;5.15;;
75914;SDS011;64593;51.050;13.780;2023-06-10T06:10:41;5.40;;;4.22;;
75914;SDS011;64593;51.050;13.780;2023-06-10T06:16:08;12.00;;;4.45;;
75914;SDS011;64593;51.050;13.780;2023-06-10T06:21:10;10.93;;;4.53;;
75914;SDS011;64593;51.050;13.780;2023-06-10T06:26:13;4.57;;;3.83;;
75914;SDS011;64593;51.050;13.780;2023-06-10T06:31:15;6.55;;;4.20;;
75914;SDS011;64593;51.050;13.780;2023-06-10T06:36:17;5.47;;;3.90;;
75914;SDS011;64593;51.050;13.780;2023-06-10T06:41:21;5.90;;;4.68;;
75914;SDS011;64593;51.050;13.780;2023-06-10T06:46:25;10.35;;;4.30;;
75914;SDS011;64593;51.050;13.780;2023-06-10T06:51:27;5.18;;;3.88;;
75914;SDS011;64593;51.050;13.780;2023-06-10T06:56:30;6.90;;;4.18;;
75914;SDS011;64593;51.050;13.780;2023-06-10T07:01:33;10.35;;;4.70;;
75914;SDS011;64593;51.050;13.780;2023-06-10T07:06:40;7.55;;;4.82;;
75914;SDS011;64593;51.050;13.780;2023-06-10T07:11:44;7.72;;;4.55;;
75914;SDS011;64593;51.050;13.780;2023-06-10T07:16:46;7.03;;;5.25;;
75914;SDS011;64593;51.050;13.780;2023-06-10T07:21:50;12.25;;;4.90;;
75914;SDS011;64593;51.050;13.780;2023-06-10T07:26:54;8.20;;;5.00;;
75914;SDS011;64593;51.050;13.780;2023-06-10T07:31:56;7.55;;;4.25;;
75914;SDS011;64593;51.050;13.780;2023-06-10T07:37:00;7.32;;;4.53;;
75914;SDS011;64593;51.050;13.780;2023-06-10T07:42:06;10.40;;;5.03;;
75914;SDS011;64593;51.050;13.780;2023-06-10T07:47:13;8.02;;;5.40;;
75914;SDS011;64593;51.050;13.780;2023-06-10T07:52:15;7.05;;;4.57;;
75914;SDS011;64593;51.050;13.780;2023-06-10T07:57:20;6.10;;;4.25;;
75914;SDS011;64593;51.050;13.780;2023-06-10T08:02:22;7.10;;;4.40;;
75914;SDS011;64593;51.050;13.780;2023-06-10T08:07:30;8.73;;;4.53;;
75914;SDS011;64593;51.050;13.780;2023-06-10T08:12:37;6.15;;;4.35;;
75914;SDS011;64593;51.050;13.780;2023-06-10T08:17:45;5.97;;;4.55;;
75914;SDS011;64593;51.050;13.780;2023-06-10T08:23:11;6.60;;;4.43;;
75914;SDS011;64593;51.050;13.780;2023-06-10T08:28:38;7.35;;;4.00;;
75914;SDS011;64593;51.050;13.780;2023-06-10T08:38:42;9.88;;;4.18;;
75914;SDS011;64593;51.050;13.780;2023-06-10T08:44:30;5.50;;;3.90;;
75914;SDS011;64593;51.050;13.780;2023-06-10T08:49:09;7.00;;;4.07;;
75914;SDS011;64593;51.050;13.780;2023-06-10T08:54:11;5.82;;;4.63;;
75914;SDS011;64593;51.050;13.780;2023-06-10T08:59:24;5.05;;;3.90;;
75914;SDS011;64593;51.050;13.780;2023-06-10T09:04:27;15.13;;;5.57;;
75914;SDS011;64593;51.050;13.780;2023-06-10T09:14:35;7.15;;;4.70;;
75914;SDS011;64593;51.050;13.780;2023-06-10T09:24:43;27.05;;;7.30;;
75914;SDS011;64593;51.050;13.780;2023-06-10T09:30:10;20.77;;;6.88;;
75914;SDS011;64593;51.050;13.780;2023-06-10T09:35:16;7.43;;;3.47;;
75914;SDS011;64593;51.050;13.780;2023-06-10T09:40:18;4.72;;;2.63;;
75914;SDS011;64593;51.050;13.780;2023-06-10T09:45:30;6.35;;;2.78;;
75914;SDS011;64593;51.050;13.780;2023-06-10T09:50:33;6.18;;;2.83;;
75914;SDS011;64593;51.050;13.780;2023-06-10T09:55:43;4.45;;;3.00;;
75914;SDS011;64593;51.050;13.780;2023-06-10T10:00:50;10.07;;;3.88;;
75914;SDS011;64593;51.050;13.780;2023-06-10T10:05:58;6.72;;;3.65;;
75914;SDS011;64593;51.050;13.780;2023-06-10T10:11:27;7.78;;;3.85;;
75914;SDS011;64593;51.050;13.780;2023-06-10T10:16:30;5.95;;;3.60;;
75914;SDS011;64593;51.050;13.780;2023-06-10T10:21:40;7.25;;;3.55;;
75914;SDS011;64593;51.050;13.780;2023-06-10T10:26:46;5.15;;;2.45;;
75914;SDS011;64593;51.050;13.780;2023-06-10T10:32:14;6.25;;;2.70;;
75914;SDS011;64593;51.050;13.780;2023-06-10T10:37:17;4.63;;;3.47;;
75914;SDS011;64593;51.050;13.780;2023-06-10T10:42:45;7.20;;;3.97;;
75914;SDS011;64593;51.050;13.780;2023-06-10T10:47:52;9.68;;;4.18;;
75914;SDS011;64593;51.050;13.780;2023-06-10T10:53:22;7.78;;;3.38;;
75914;SDS011;64593;51.050;13.780;2023-06-10T11:03:29;3.40;;;2.28;;
75914;SDS011;64593;51.050;13.780;2023-06-10T11:08:59;4.28;;;3.20;;
75914;SDS011;64593;51.050;13.780;2023-06-10T11:14:07;6.63;;;3.38;;
75914;SDS011;64593;51.050;13.780;2023-06-10T11:19:31;11.60;;;3.88;;
75914;SDS011;64593;51.050;13.780;2023-06-10T11:24:33;5.40;;;3.67;;
75914;SDS011;64593;51.050;13.780;2023-06-10T11:35:29;8.88;;;3.33;;
75914;SDS011;64593;51.050;13.780;2023-06-10T11:40:31;5.30;;;3.42;;
75914;SDS011;64593;51.050;13.780;2023-06-10T11:51:05;3.97;;;2.38;;
75914;SDS011;64593;51.050;13.780;2023-06-10T11:56:42;6.18;;;3.00;;
75914;SDS011;64593;51.050;13.780;2023-06-10T12:02:14;6.65;;;3.10;;
75914;SDS011;64593;51.050;13.780;2023-06-10T12:07:42;11.02;;;3.90;;
75914;SDS011;64593;51.050;13.780;2023-06-10T12:12:45;10.88;;;3.25;;
75914;SDS011;64593;51.050;13.780;2023-06-10T12:23:21;8.82;;;3.03;;
75914;SDS011;64593;51.050;13.780;2023-06-10T12:28:51;6.70;;;2.75;;
75914;SDS011;64593;51.050;13.780;2023-06-10T12:34:34;5.65;;;2.90;;
75914;SDS011;64593;51.050;13.780;2023-06-10T12:40:05;3.20;;;2.60;;
75914;SDS011;64593;51.050;13.780;2023-06-10T12:45:26;6.68;;;2.72;;
75914;SDS011;64593;51.050;13.780;2023-06-10T12:57:50;6.45;;;2.67;;
75914;SDS011;64593;51.050;13.780;2023-06-10T13:03:43;7.18;;;3.63;;
75914;SDS011;64593;51.050;13.780;2023-06-10T13:08:49;5.90;;;2.88;;
75914;SDS011;64593;51.050;13.780;2023-06-10T13:14:17;5.38;;;4.03;;
75914;SDS011;64593;51.050;13.780;2023-06-10T13:19:44;5.55;;;2.38;;
75914;SDS011;64593;51.050;13.780;2023-06-10T13:25:11;8.43;;;3.30;;
75914;SDS011;64593;51.050;13.780;2023-06-10T13:30:13;4.75;;;3.05;;
75914;SDS011;64593;51.050;13.780;2023-06-10T13:35:40;5.15;;;2.40;;
75914;SDS011;64593;51.050;13.780;2023-06-10T13:40:42;7.32;;;2.95;;
75914;SDS011;64593;51.050;13.780;2023-06-10T13:45:44;4.45;;;1.80;;
75914;SDS011;64593;51.050;13.780;2023-06-10T13:51:11;4.15;;;2.40;;
75914;SDS011;64593;51.050;13.780;2023-06-10T13:56:38;5.57;;;2.97;;
75914;SDS011;64593;51.050;13.780;2023-06-10T14:01:40;4.07;;;2.55;;
75914;SDS011;64593;51.050;13.780;2023-06-10T14:07:07;6.45;;;2.10;;
75914;SDS011;64593;51.050;13.780;2023-06-10T14:12:34;11.88;;;6.05;;
75914;SDS011;64593;51.050;13.780;2023-06-10T14:23:03;4.55;;;2.70;;
75914;SDS011;64593;51.050;13.780;2023-06-10T14:28:30;4.68;;;2.60;;
75914;SDS011;64593;51.050;13.780;2023-06-10T14:33:57;6.18;;;3.00;;
75914;SDS011;64593;51.050;13.780;2023-06-10T14:44:52;4.53;;;3.15;;
75914;SDS011;64593;51.050;13.780;2023-06-10T14:49:54;4.32;;;2.60;;
75914;SDS011;64593;51.050;13.780;2023-06-10T14:55:21;5.63;;;2.40;;
75914;SDS011;64593;51.050;13.780;2023-06-10T15:00:51;3.55;;;2.40;;
75914;SDS011;64593;51.050;13.780;2023-06-10T15:05:55;6.63;;;3.50;;
75914;SDS011;64593;51.050;13.780;2023-06-10T15:11:22;7.57;;;2.97;;
75914;SDS011;64593;51.050;13.780;2023-06-10T15:16:24;6.75;;;3.05;;
75914;SDS011;64593;51.050;13.780;2023-06-10T15:21:26;6.75;;;2.95;;
75914;SDS011;64593;51.050;13.780;2023-06-10T15:26:27;5.28;;;3.25;;
75914;SDS011;64593;51.050;13.780;2023-06-10T15:31:30;4.82;;;3.00;;
75914;SDS011;64593;51.050;13.780;2023-06-10T15:36:58;8.98;;;3.28;;
75914;SDS011;64593;51.050;13.780;2023-06-10T15:42:00;4.00;;;2.22;;
75914;SDS011;64593;51.050;13.780;2023-06-10T15:47:02;8.88;;;3.97;;
75914;SDS011;64593;51.050;13.780;2023-06-10T15:52:29;4.95;;;3.55;;
75914;SDS011;64593;51.050;13.780;2023-06-10T15:57:31;3.95;;;2.88;;
75914;SDS011;64593;51.050;13.780;2023-06-10T16:02:58;5.47;;;3.53;;
75914;SDS011;64593;51.050;13.780;2023-06-10T16:08:01;5.63;;;2.65;;
75914;SDS011;64593;51.050;13.780;2023-06-10T16:13:30;5.30;;;2.85;;
75914;SDS011;64593;51.050;13.780;2023-06-10T16:18:31;6.80;;;3.47;;
75914;SDS011;64593;51.050;13.780;2023-06-10T16:23:33;7.10;;;3.53;;
75914;SDS011;64593;51.050;13.780;2023-06-10T16:28:35;4.55;;;3.45;;
75914;SDS011;64593;51.050;13.780;2023-06-10T16:39:04;6.80;;;3.97;;
75914;SDS011;64593;51.050;13.780;2023-06-10T16:44:10;11.82;;;4.60;;
